Cedar City, Utah
Current Conditions -  °F | °C
As of 8:53 AM on Friday 24 Oct 2014 (Local Time) from KCDC Reporting Station
Clear Clear  
Wind Chill: 50°   Ceiling: Unl
Heat Index: 50°   Visibility: 10mi
Dew Point: 33°   Wind: 6mph
Humidity: 52%   Direction: 130°SE
Pressure: 30.28"   Gusts: NA
Location:  37.68°N, 113.06°W
Report Text: KCDC 241453Z AUTO 13005KT 10SM CLR 10/01 A3028 RMK AO2 SLP218 T01000006 53012 TSNO
Loading
Personal Weather Stations






























Interactive Weather Map
Tropical Storm Tracking
New forecast layout! Learn more

10-Day Weather Forecast

Advertisements
Track Severe Weather on mobile